Time;durP1;ratioP1;P1;durP2;ratioP2;P2;SDS_P1;SDS_P2;PMS_P1;PMS_P2;Temp;Humidity;BMP_temperature;BMP_pressure;BME280_temperature;BME280_humidity;BME280_pressure;Samples;Min_cycle;Max_cycle;Signal;HPM_P1;HPM_P2
2022/03/05 00:01:00;;;;;;;41.00;20.42;;;3.00;99.90;;;;;;5163756;22;20344;-66
2022/03/05 00:03:02;;;;;;;35.33;18.08;;;3.10;99.90;;;;;;5161526;23;20079;-66
2022/03/05 00:05:02;;;;;;;35.38;17.63;;;3.20;99.90;;;;;;5164579;22;20448;-66
2022/03/05 00:07:03;;;;;;;35.55;18.42;;;3.30;99.90;;;;;;5163746;22;20012;-66
2022/03/05 00:09:04;;;;;;;35.53;17.42;;;3.40;99.90;;;;;;5164829;22;20347;-66
2022/03/05 00:11:04;;;;;;;37.97;18.58;;;3.50;99.90;;;;;;5163474;22;20947;-66
2022/03/05 00:13:05;;;;;;;38.85;18.73;;;3.60;99.90;;;;;;5164815;22;20035;-66
2022/03/05 00:15:06;;;;;;;40.53;19.73;;;3.50;99.90;;;;;;5163344;22;20043;-66
2022/03/05 00:17:07;;;;;;;34.03;17.33;;;3.50;99.90;;;;;;5163941;22;20015;-66
2022/03/05 00:19:07;;;;;;;36.75;19.50;;;3.60;99.90;;;;;;5164436;22;20441;-65
2022/03/05 00:21:08;;;;;;;42.85;19.92;;;3.50;99.90;;;;;;5163042;22;20363;-66
2022/03/05 00:23:09;;;;;;;36.92;17.52;;;3.50;99.90;;;;;;5164147;22;20053;-66
2022/03/05 00:25:10;;;;;;;34.53;18.65;;;3.60;99.90;;;;;;5162869;22;20012;-66
2022/03/05 00:27:10;;;;;;;35.97;19.02;;;3.60;99.90;;;;;;5163273;22;20012;-66
2022/03/05 00:29:11;;;;;;;38.05;19.20;;;3.50;99.90;;;;;;5164178;22;20427;-66
2022/03/05 00:31:12;;;;;;;37.38;19.40;;;3.40;99.90;;;;;;5162986;22;20415;-65
2022/03/05 00:33:12;;;;;;;39.58;19.35;;;3.50;99.90;;;;;;5163848;22;20440;-65
2022/03/05 00:35:13;;;;;;;35.15;18.67;;;3.50;99.90;;;;;;5163622;22;20036;-66
2022/03/05 00:37:13;;;;;;;34.08;18.17;;;3.60;99.90;;;;;;5165504;22;20012;-66
2022/03/05 00:39:14;;;;;;;32.75;18.65;;;3.50;99.90;;;;;;5165729;22;20009;-66
2022/03/05 00:41:15;;;;;;;35.08;17.85;;;3.60;99.90;;;;;;5164408;22;20580;-65
2022/03/05 00:43:15;;;;;;;37.20;19.42;;;3.50;99.90;;;;;;5164674;22;20372;-66
2022/03/05 00:45:16;;;;;;;37.25;19.67;;;3.50;99.90;;;;;;5165179;22;20761;-65
2022/03/05 00:47:17;;;;;;;33.35;18.33;;;3.40;99.90;;;;;;5166091;22;20094;-66
2022/03/05 00:49:17;;;;;;;35.05;17.60;;;3.60;99.90;;;;;;5166133;22;20027;-66
2022/03/05 00:51:18;;;;;;;36.20;18.00;;;3.60;99.90;;;;;;5164716;22;20120;-66
2022/03/05 00:53:21;;;;;;;36.80;18.55;;;3.60;99.90;;;;;;5165925;22;20012;-66
2022/03/05 00:55:21;;;;;;;37.50;18.50;;;3.60;99.90;;;;;;5161981;23;20119;-66
2022/03/05 00:57:22;;;;;;;31.95;17.60;;;3.70;99.90;;;;;;5165458;22;20012;-66
2022/03/05 00:59:22;;;;;;;42.75;20.75;;;3.70;99.90;;;;;;5164444;22;20024;-66
2022/03/05 01:01:23;;;;;;;34.97;18.92;;;3.80;99.90;;;;;;5163704;22;20016;-67
2022/03/05 01:03:24;;;;;;;35.88;19.08;;;3.80;99.90;;;;;;5164573;22;20016;-66
2022/03/05 01:05:24;;;;;;;35.33;17.77;;;3.80;99.90;;;;;;5163795;22;20012;-66
2022/03/05 01:07:25;;;;;;;34.78;18.45;;;3.80;99.90;;;;;;5164611;22;20004;-66
2022/03/05 01:09:25;;;;;;;45.28;20.73;;;3.80;99.90;;;;;;5164517;22;20435;-66
2022/03/05 01:11:27;;;;;;;41.20;19.85;;;3.70;99.90;;;;;;5163958;22;20020;-65
2022/03/05 01:13:28;;;;;;;40.28;19.52;;;3.70;99.90;;;;;;5166017;22;20008;-66
2022/03/05 01:15:28;;;;;;;35.83;19.38;;;3.60;99.90;;;;;;5165243;22;20020;-65
2022/03/05 01:17:29;;;;;;;38.58;20.02;;;3.70;99.90;;;;;;5162787;23;20332;-66
2022/03/05 01:19:29;;;;;;;37.33;19.13;;;3.60;99.90;;;;;;5165973;22;20091;-66
2022/03/05 01:21:30;;;;;;;36.92;18.95;;;3.60;99.90;;;;;;5163442;22;20008;-66
2022/03/05 01:23:31;;;;;;;36.33;18.45;;;3.70;99.90;;;;;;5165649;22;20004;-66
2022/03/05 01:25:31;;;;;;;36.30;18.10;;;3.70;99.90;;;;;;5163235;22;20008;-66
2022/03/05 01:27:32;;;;;;;40.65;21.00;;;3.80;99.90;;;;;;5165376;22;20474;-66
2022/03/05 01:29:33;;;;;;;40.00;19.85;;;3.50;99.90;;;;;;5165387;22;20038;-66
2022/03/05 01:31:33;;;;;;;36.40;18.45;;;3.60;99.90;;;;;;5164931;22;20012;-66
2022/03/05 01:33:34;;;;;;;39.38;21.15;;;3.60;99.90;;;;;;5165831;22;20040;-66
2022/03/05 01:35:35;;;;;;;38.38;18.40;;;3.50;99.90;;;;;;5164723;22;20059;-66
2022/03/05 01:37:35;;;;;;;39.40;20.42;;;3.50;99.90;;;;;;5165147;22;20008;-66
2022/03/05 01:39:36;;;;;;;40.17;20.23;;;3.50;99.90;;;;;;5165506;22;20035;-66
2022/03/05 01:41:37;;;;;;;35.35;19.52;;;3.40;99.90;;;;;;5164465;22;20004;-66
2022/03/05 01:43:38;;;;;;;35.20;18.05;;;3.30;99.90;;;;;;5165270;22;20008;-66
2022/03/05 01:45:39;;;;;;;37.78;18.90;;;3.40;99.90;;;;;;5164740;22;20015;-66
2022/03/05 01:47:40;;;;;;;41.40;19.23;;;3.40;99.90;;;;;;5165070;22;20079;-66
2022/03/05 01:49:41;;;;;;;38.67;19.67;;;3.40;99.90;;;;;;5164462;22;20001;-66
2022/03/05 01:51:42;;;;;;;36.63;19.50;;;3.40;99.90;;;;;;5163952;22;20308;-66
2022/03/05 01:53:43;;;;;;;37.20;18.48;;;3.40;99.90;;;;;;5165392;22;20125;-66
2022/03/05 01:55:44;;;;;;;36.03;18.27;;;3.40;99.90;;;;;;5163930;22;20020;-66
2022/03/05 01:57:45;;;;;;;39.25;19.77;;;3.50;99.90;;;;;;5165051;22;20008;-66
2022/03/05 01:59:46;;;;;;;40.22;19.63;;;3.40;99.90;;;;;;5164513;22;20023;-66
2022/03/05 02:01:47;;;;;;;39.00;18.75;;;3.50;99.90;;;;;;5163761;22;20008;-66
2022/03/05 02:03:47;;;;;;;35.53;18.55;;;3.50;99.90;;;;;;5165405;22;20008;-67
2022/03/05 02:05:48;;;;;;;35.53;18.38;;;3.50;99.90;;;;;;5164342;22;20074;-66
2022/03/05 02:07:49;;;;;;;37.25;18.08;;;3.50;99.90;;;;;;5164469;22;20001;-66
2022/03/05 02:09:51;;;;;;;31.73;16.67;;;3.60;99.90;;;;;;5164822;22;20083;-66
2022/03/05 02:11:52;;;;;;;33.72;17.65;;;3.50;99.90;;;;;;5163855;22;20019;-66
2022/03/05 02:13:53;;;;;;;34.00;18.55;;;3.60;99.90;;;;;;5164975;22;20008;-66
2022/03/05 02:15:57;;;;;;;35.83;17.70;;;3.50;99.90;;;;;;5164395;22;20389;-66
2022/03/05 02:17:58;;;;;;;42.03;19.80;;;3.50;99.90;;;;;;5164034;22;20079;-66
2022/03/05 02:19:59;;;;;;;40.28;19.73;;;3.30;99.90;;;;;;5166030;22;20344;-66
2022/03/05 02:21:59;;;;;;;37.85;19.50;;;3.40;99.90;;;;;;5164252;22;20099;-67
2022/03/05 02:24:00;;;;;;;35.78;18.55;;;3.30;99.90;;;;;;5165751;22;20004;-66
2022/03/05 02:26:02;;;;;;;36.63;17.40;;;3.30;99.90;;;;;;5164547;22;20016;-66
2022/03/05 02:28:04;;;;;;;31.52;16.33;;;3.30;99.90;;;;;;5164238;22;20067;-66
2022/03/05 02:30:05;;;;;;;36.15;17.80;;;3.30;99.90;;;;;;5165005;22;20009;-66
2022/03/05 02:32:06;;;;;;;37.78;19.48;;;3.30;99.90;;;;;;5164646;22;20087;-66
2022/03/05 02:34:07;;;;;;;35.95;18.45;;;3.20;99.90;;;;;;5165488;22;20121;-65
2022/03/05 02:36:08;;;;;;;43.10;20.83;;;3.20;99.90;;;;;;5164198;22;20024;-66
2022/03/05 02:38:08;;;;;;;39.70;19.65;;;2.90;99.90;;;;;;5165124;22;20004;-66
2022/03/05 02:40:09;;;;;;;42.55;20.75;;;2.80;99.90;;;;;;5164091;22;20044;-67
2022/03/05 02:42:12;;;;;;;39.35;19.83;;;2.80;99.90;;;;;;5164572;22;20498;-66
2022/03/05 02:44:12;;;;;;;35.67;18.55;;;2.80;99.90;;;;;;5162524;23;20131;-66
2022/03/05 02:46:13;;;;;;;36.22;17.80;;;2.80;99.90;;;;;;5164045;22;20016;-66
2022/03/05 02:48:15;;;;;;;36.38;19.02;;;2.80;99.90;;;;;;5164451;22;20008;-65
2022/03/05 02:50:16;;;;;;;32.53;16.92;;;2.90;99.90;;;;;;5163470;22;20007;-65
2022/03/05 02:52:17;;;;;;;38.10;19.17;;;2.90;99.90;;;;;;5164097;22;20035;-66
2022/03/05 02:54:17;;;;;;;39.65;19.33;;;2.90;99.90;;;;;;5164170;22;20080;-66
2022/03/05 02:56:18;;;;;;;37.60;18.13;;;3.00;99.90;;;;;;5164094;22;20020;-66
2022/03/05 02:58:18;;;;;;;38.10;19.05;;;3.00;99.90;;;;;;5164443;22;20008;-66
2022/03/05 03:00:19;;;;;;;35.17;17.63;;;3.00;99.90;;;;;;5163354;22;20123;-66
2022/03/05 03:02:20;;;;;;;37.28;18.23;;;3.10;99.90;;;;;;5164523;22;20425;-66
2022/03/05 03:04:20;;;;;;;32.53;16.30;;;3.00;99.90;;;;;;5164531;22;20008;-66
2022/03/05 03:06:21;;;;;;;35.70;18.13;;;3.00;99.90;;;;;;5163576;22;20016;-66
2022/03/05 03:08:22;;;;;;;33.97;16.77;;;3.00;99.90;;;;;;5164230;22;20008;-66
2022/03/05 03:10:22;;;;;;;35.80;17.48;;;3.00;99.90;;;;;;5163498;22;20594;-66
2022/03/05 03:12:23;;;;;;;35.15;17.90;;;3.00;99.90;;;;;;5164832;22;20019;-66
2022/03/05 03:14:23;;;;;;;39.22;18.25;;;2.90;99.90;;;;;;5164288;22;20083;-65
2022/03/05 03:16:24;;;;;;;40.28;20.25;;;2.80;99.90;;;;;;5163273;22;20014;-66
2022/03/05 03:18:25;;;;;;;41.40;20.23;;;2.60;99.90;;;;;;5164187;22;20013;-66
2022/03/05 03:20:27;;;;;;;43.83;20.88;;;2.60;99.90;;;;;;5163149;22;20032;-66
2022/03/05 03:22:27;;;;;;;37.40;19.25;;;2.50;99.90;;;;;;5163794;22;20012;-66
2022/03/05 03:24:28;;;;;;;42.92;20.48;;;2.40;99.90;;;;;;5165245;22;20027;-66
2022/03/05 03:26:28;;;;;;;41.53;20.10;;;2.20;99.90;;;;;;5164541;22;20012;-66
2022/03/05 03:28:29;;;;;;;42.60;19.50;;;2.10;99.90;;;;;;5165320;22;20074;-66
2022/03/05 03:30:29;;;;;;;36.83;18.05;;;2.10;99.90;;;;;;5164391;22;20019;-66
2022/03/05 03:32:30;;;;;;;42.05;19.42;;;2.00;99.90;;;;;;5164974;22;20432;-66
2022/03/05 03:34:31;;;;;;;41.70;18.27;;;2.10;99.90;;;;;;5164904;22;20063;-66
2022/03/05 03:36:31;;;;;;;40.97;18.88;;;2.10;99.90;;;;;;5164354;22;20083;-66
2022/03/05 03:38:32;;;;;;;40.65;19.50;;;2.00;99.90;;;;;;5165209;22;20375;-66
2022/03/05 03:40:32;;;;;;;36.03;17.45;;;2.00;99.90;;;;;;5164181;22;20099;-66
2022/03/05 03:42:33;;;;;;;34.15;17.02;;;2.10;99.90;;;;;;5164489;22;20061;-66
2022/03/05 03:44:34;;;;;;;34.05;17.10;;;2.20;99.90;;;;;;5164634;22;20348;-66
2022/03/05 03:46:35;;;;;;;38.47;18.00;;;2.20;99.90;;;;;;5163347;22;20294;-66
2022/03/05 03:48:35;;;;;;;36.88;17.73;;;2.30;99.90;;;;;;5164107;22;20393;-66
2022/03/05 03:50:36;;;;;;;40.08;18.45;;;2.20;99.90;;;;;;5163225;22;20050;-65
2022/03/05 03:52:37;;;;;;;38.47;19.35;;;2.20;99.90;;;;;;5163383;22;20475;-66
2022/03/05 03:54:37;;;;;;;36.67;17.77;;;2.10;99.90;;;;;;5164286;22;20355;-66
2022/03/05 03:56:38;;;;;;;39.78;18.40;;;2.20;99.90;;;;;;5163028;22;20070;-66
2022/03/05 03:58:38;;;;;;;40.20;19.75;;;2.20;99.90;;;;;;5164222;22;20012;-66
2022/03/05 04:00:39;;;;;;;39.95;19.52;;;2.20;99.90;;;;;;5163233;22;20019;-65
2022/03/05 04:02:41;;;;;;;42.33;19.23;;;2.10;99.90;;;;;;5163622;22;20029;-66
2022/03/05 04:04:41;;;;;;;38.25;18.67;;;2.10;99.90;;;;;;5164166;22;20008;-65
2022/03/05 04:09:01;;;;;;;43.10;19.40;;;1.90;99.90;;;;;;5162424;22;20297;-66
2022/03/05 04:11:04;;;;;;;38.35;18.55;;;1.80;99.90;;;;;;5164070;22;20071;-66
2022/03/05 04:13:04;;;;;;;41.25;20.65;;;1.70;99.90;;;;;;5165040;22;20412;-66
2022/03/05 04:15:05;;;;;;;40.38;19.95;;;1.60;99.90;;;;;;5164002;22;20016;-67
2022/03/05 04:17:06;;;;;;;40.65;19.60;;;1.40;99.90;;;;;;5164174;22;20012;-66
2022/03/05 04:19:07;;;;;;;39.63;18.77;;;1.40;99.90;;;;;;5164274;22;20012;-65
2022/03/05 04:21:08;;;;;;;40.42;18.95;;;1.40;99.90;;;;;;5163286;22;21877;-66
2022/03/05 04:23:09;;;;;;;40.87;19.00;;;1.30;99.90;;;;;;5163866;22;20028;-66
2022/03/05 04:25:10;;;;;;;39.30;19.48;;;1.30;99.90;;;;;;5163075;22;20086;-66
2022/03/05 04:27:10;;;;;;;38.85;18.65;;;1.30;99.90;;;;;;5164144;22;20078;-66
2022/03/05 04:29:11;;;;;;;40.40;18.30;;;1.30;99.90;;;;;;5163932;22;20332;-66
2022/03/05 04:31:12;;;;;;;39.08;18.55;;;1.30;99.90;;;;;;5162479;22;20032;-65
2022/03/05 04:33:12;;;;;;;39.28;17.75;;;1.40;99.90;;;;;;5163981;22;20012;-66
2022/03/05 04:35:13;;;;;;;36.08;16.23;;;1.50;99.90;;;;;;5163175;22;20012;-66
2022/03/05 04:37:14;;;;;;;38.72;17.92;;;1.60;99.90;;;;;;5164144;22;20066;-65
2022/03/05 04:39:14;;;;;;;38.72;18.13;;;1.70;99.90;;;;;;5163735;22;20091;-65
2022/03/05 04:41:15;;;;;;;40.15;18.83;;;1.80;99.90;;;;;;5162809;22;20016;-65
2022/03/05 04:43:16;;;;;;;41.25;19.45;;;1.90;99.90;;;;;;5162143;23;20356;-65
2022/03/05 04:45:16;;;;;;;39.70;19.38;;;1.90;99.90;;;;;;5162833;22;20455;-66
2022/03/05 04:47:17;;;;;;;42.55;19.70;;;1.80;99.90;;;;;;5163788;22;20005;-65
2022/03/05 04:49:17;;;;;;;41.47;19.30;;;1.80;99.90;;;;;;5163924;22;20007;-65
2022/03/05 04:51:18;;;;;;;41.08;19.88;;;1.70;99.90;;;;;;5163287;22;20066;-66
2022/03/05 04:53:21;;;;;;;43.38;19.98;;;1.70;99.90;;;;;;5163216;22;20058;-66
2022/03/05 04:55:22;;;;;;;44.92;20.77;;;1.60;99.90;;;;;;5162626;22;20047;-66
2022/03/05 04:57:24;;;;;;;49.00;20.05;;;1.60;99.90;;;;;;5162805;22;20062;-65
2022/03/05 04:59:25;;;;;;;42.03;20.27;;;1.50;99.90;;;;;;5164172;22;20351;-66
2022/03/05 05:01:25;;;;;;;41.85;19.65;;;1.40;99.90;;;;;;5162174;22;20040;-66
2022/03/05 05:03:26;;;;;;;40.67;20.23;;;1.30;99.90;;;;;;5163323;22;20013;-66
2022/03/05 05:05:26;;;;;;;44.88;20.73;;;1.30;99.90;;;;;;5162075;22;20375;-65
2022/03/05 05:07:27;;;;;;;38.92;17.75;;;1.30;99.90;;;;;;5163756;22;20015;-66
2022/03/05 05:09:28;;;;;;;37.42;17.63;;;1.40;99.90;;;;;;5162710;22;20008;-66
2022/03/05 05:11:28;;;;;;;36.72;16.60;;;1.50;99.90;;;;;;5162068;22;20017;-65
2022/03/05 05:13:29;;;;;;;37.22;18.40;;;1.50;99.90;;;;;;5162933;22;20594;-66
2022/03/05 05:15:29;;;;;;;35.97;17.95;;;1.50;99.90;;;;;;5160345;23;20024;-65
2022/03/05 05:17:37;;;;;;;35.72;17.15;;;1.60;99.90;;;;;;5164127;22;20024;-66
2022/03/05 05:19:37;;;;;;;40.25;17.88;;;1.60;99.90;;;;;;5136355;23;20009;-65
2022/03/05 05:21:38;;;;;;;40.83;19.38;;;1.60;99.90;;;;;;5162968;22;20011;-65
2022/03/05 05:23:39;;;;;;;39.05;19.42;;;1.40;99.90;;;;;;5165488;22;20030;-65
2022/03/05 05:25:40;;;;;;;45.40;20.48;;;1.30;99.90;;;;;;5164738;22;20023;-65
2022/03/05 05:27:40;;;;;;;39.78;18.25;;;1.20;99.90;;;;;;5162942;23;20008;-66
2022/03/05 05:29:41;;;;;;;39.65;19.80;;;1.10;99.90;;;;;;5164324;22;20087;-66
2022/03/05 05:31:41;;;;;;;38.88;18.77;;;1.10;99.90;;;;;;5164030;22;20012;-65
2022/03/05 05:33:44;;;;;;;35.70;16.58;;;1.20;99.90;;;;;;5165160;22;20004;-65
2022/03/05 05:35:44;;;;;;;43.22;19.98;;;1.20;99.90;;;;;;5162038;23;20022;-65
2022/03/05 05:37:45;;;;;;;40.95;19.35;;;1.10;99.90;;;;;;5165092;22;20021;-65
2022/03/05 05:39:46;;;;;;;44.83;20.02;;;1.10;99.90;;;;;;5164181;22;20087;-65
2022/03/05 05:41:46;;;;;;;40.78;19.63;;;0.90;99.90;;;;;;5163881;22;20012;-65
2022/03/05 05:43:47;;;;;;;41.75;19.52;;;0.90;99.90;;;;;;5164523;22;20059;-65
2022/03/05 05:45:47;;;;;;;42.17;19.83;;;0.90;99.90;;;;;;5164398;22;20008;-65
2022/03/05 05:47:48;;;;;;;41.42;19.10;;;0.90;99.90;;;;;;5164682;22;20111;-65
2022/03/05 05:49:49;;;;;;;43.20;19.52;;;0.90;99.90;;;;;;5164003;22;20019;-65
2022/03/05 05:51:49;;;;;;;42.13;19.95;;;0.90;99.90;;;;;;5163646;22;20024;-65
2022/03/05 05:53:50;;;;;;;44.63;20.20;;;0.70;99.90;;;;;;5164481;22;20000;-65
2022/03/05 05:55:50;;;;;;;40.85;19.15;;;0.70;99.90;;;;;;5161627;23;20012;-65
2022/03/05 05:57:51;;;;;;;39.55;17.50;;;0.80;99.90;;;;;;5165016;22;20087;-65
2022/03/05 05:59:51;;;;;;;41.15;19.08;;;0.90;99.90;;;;;;5164091;22;20024;-65
2022/03/05 06:01:52;;;;;;;38.08;17.75;;;1.00;99.90;;;;;;5163908;22;20050;-66
2022/03/05 06:03:53;;;;;;;37.05;17.77;;;1.10;99.90;;;;;;5163930;22;20007;-65
2022/03/05 06:05:58;;;;;;;36.22;16.48;;;1.20;99.90;;;;;;5164472;22;20008;-65
2022/03/05 06:07:58;;;;;;;37.03;17.50;;;1.30;99.90;;;;;;5162684;22;20107;-65
2022/03/05 06:09:59;;;;;;;35.33;17.35;;;1.40;99.90;;;;;;5163242;22;20027;-66
2022/03/05 06:11:59;;;;;;;35.33;16.08;;;1.50;99.90;;;;;;5163231;22;20432;-66
2022/03/05 06:14:00;;;;;;;38.92;16.92;;;1.60;99.90;;;;;;5166007;22;20086;-65
2022/03/05 06:16:01;;;;;;;39.38;17.77;;;1.70;99.90;;;;;;5165299;22;20020;-66
2022/03/05 06:18:02;;;;;;;35.55;16.63;;;1.80;99.90;;;;;;5165961;22;20004;-66
2022/03/05 06:20:02;;;;;;;35.47;15.70;;;1.90;99.90;;;;;;5164421;22;20008;-66
2022/03/05 06:22:04;;;;;;;37.90;16.48;;;1.90;99.90;;;;;;5164216;22;20004;-65
2022/03/05 06:24:05;;;;;;;32.75;16.30;;;1.90;99.90;;;;;;5165402;22;20018;-65
2022/03/05 06:26:05;;;;;;;38.05;17.23;;;2.00;99.90;;;;;;5164440;22;20393;-65
2022/03/05 06:28:06;;;;;;;36.40;16.30;;;2.00;99.90;;;;;;5162640;23;20011;-66
2022/03/05 06:30:07;;;;;;;37.05;17.17;;;2.10;99.90;;;;;;5163495;22;20014;-66
2022/03/05 06:32:08;;;;;;;40.45;17.63;;;2.10;99.90;;;;;;5163947;22;20012;-65
2022/03/05 06:34:08;;;;;;;38.08;17.40;;;2.00;99.90;;;;;;5164083;22;20011;-65
2022/03/05 06:36:09;;;;;;;37.15;17.17;;;1.90;99.90;;;;;;5162957;22;20016;-64
2022/03/05 06:38:10;;;;;;;37.40;17.67;;;1.90;99.90;;;;;;5162018;23;20071;-64
2022/03/05 06:40:11;;;;;;;41.58;19.67;;;1.90;99.90;;;;;;5162916;22;20324;-66
2022/03/05 06:42:12;;;;;;;38.55;17.98;;;1.80;99.90;;;;;;5164605;22;20086;-65
2022/03/05 06:44:12;;;;;;;38.20;18.58;;;1.70;99.90;;;;;;5165201;22;20083;-64
2022/03/05 06:46:13;;;;;;;41.33;18.67;;;1.80;99.90;;;;;;5164188;22;20004;-64
2022/03/05 06:48:14;;;;;;;35.65;16.80;;;1.80;99.90;;;;;;5164615;22;20004;-64
2022/03/05 06:50:14;;;;;;;42.58;18.55;;;1.80;99.90;;;;;;5163717;22;20015;-65
2022/03/05 06:52:15;;;;;;;41.58;18.45;;;1.80;99.90;;;;;;5164935;22;20087;-64
2022/03/05 06:54:16;;;;;;;38.10;18.17;;;1.70;99.90;;;;;;5164625;22;20088;-64
2022/03/05 06:56:16;;;;;;;40.05;17.70;;;1.70;99.90;;;;;;5163303;22;20114;-64
2022/03/05 06:58:17;;;;;;;37.83;17.88;;;1.70;99.90;;;;;;5164309;22;20502;-64
2022/03/05 07:00:18;;;;;;;43.00;18.40;;;1.70;99.90;;;;;;5163272;22;20024;-64
2022/03/05 07:02:19;;;;;;;41.28;17.95;;;1.70;99.90;;;;;;5164720;22;20463;-65
2022/03/05 07:04:20;;;;;;;36.75;17.05;;;1.80;99.90;;;;;;5164091;22;21755;-64
2022/03/05 07:06:21;;;;;;;41.22;17.63;;;1.90;99.90;;;;;;5162725;22;20012;-64
2022/03/05 07:08:22;;;;;;;37.90;17.83;;;2.10;99.90;;;;;;5163504;22;20149;-65
2022/03/05 07:10:22;;;;;;;41.20;18.60;;;2.20;99.90;;;;;;5163763;22;20004;-66
2022/03/05 07:12:24;;;;;;;39.03;17.65;;;2.30;99.90;;;;;;5164350;22;20021;-65
2022/03/05 07:14:25;;;;;;;34.42;15.88;;;2.50;99.90;;;;;;5161823;23;20004;-65
2022/03/05 07:16:26;;;;;;;39.40;16.95;;;2.70;99.90;;;;;;5163349;22;20066;-65
2022/03/05 07:18:26;;;;;;;34.80;17.02;;;3.00;99.90;;;;;;5164301;22;20012;-65
2022/03/05 07:20:27;;;;;;;38.08;17.75;;;3.20;99.90;;;;;;5163077;22;20012;-65
2022/03/05 07:22:28;;;;;;;40.65;16.65;;;3.50;99.90;;;;;;5163868;22;20062;-65
2022/03/05 07:24:28;;;;;;;39.88;18.27;;;3.80;99.90;;;;;;5164031;22;20075;-65
2022/03/05 07:26:29;;;;;;;40.53;18.05;;;4.10;99.90;;;;;;5162888;22;20020;-66
2022/03/05 07:28:29;;;;;;;38.00;17.27;;;4.40;99.90;;;;;;5164007;22;20008;-66
2022/03/05 07:30:30;;;;;;;36.50;16.35;;;4.70;99.90;;;;;;5163285;22;20022;-66
2022/03/05 07:32:31;;;;;;;41.35;17.85;;;4.80;99.90;;;;;;5163744;22;20016;-66
2022/03/05 07:34:31;;;;;;;41.60;18.20;;;5.10;99.90;;;;;;5162007;23;20050;-65
2022/03/05 07:36:32;;;;;;;40.97;18.48;;;5.40;99.90;;;;;;5164567;22;20339;-66
2022/03/05 07:38:34;;;;;;;37.15;17.35;;;5.60;99.90;;;;;;5167143;22;20061;-66
2022/03/05 07:40:34;;;;;;;39.22;18.17;;;5.80;99.90;;;;;;5162629;22;20016;-65
2022/03/05 07:42:35;;;;;;;35.03;17.33;;;6.00;99.90;;;;;;5166504;22;20083;-65
2022/03/05 07:44:36;;;;;;;36.97;17.65;;;6.30;99.90;;;;;;5164697;22;20061;-66
2022/03/05 07:46:37;;;;;;;34.30;16.98;;;6.50;99.90;;;;;;5160831;22;20354;-65
2022/03/05 07:48:38;;;;;;;34.38;16.42;;;6.40;99.90;;;;;;5164987;22;20087;-66
2022/03/05 07:50:38;;;;;;;39.67;17.90;;;6.70;99.90;;;;;;5163940;22;20009;-65
2022/03/05 07:52:39;;;;;;;34.72;18.42;;;6.80;99.90;;;;;;5164637;22;20065;-66
2022/03/05 07:54:39;;;;;;;32.88;16.50;;;7.00;99.90;;;;;;5164676;22;20077;-65
2022/03/05 07:56:40;;;;;;;34.65;16.98;;;7.30;99.90;;;;;;5163934;22;20078;-66
2022/03/05 07:58:41;;;;;;;34.33;16.92;;;7.50;99.90;;;;;;5163712;22;20012;-66
2022/03/05 08:00:41;;;;;;;35.28;16.48;;;7.80;99.90;;;;;;5161943;22;20028;-66
2022/03/05 08:02:42;;;;;;;35.88;17.55;;;8.00;99.90;;;;;;5164398;22;20012;-65
2022/03/05 08:04:44;;;;;;;34.85;17.92;;;8.30;99.90;;;;;;5163815;22;20008;-66
2022/03/05 08:06:45;;;;;;;35.72;17.17;;;8.40;99.90;;;;;;5160800;22;20042;-66
2022/03/05 08:08:46;;;;;;;37.05;17.48;;;8.50;99.90;;;;;;5164143;22;20387;-66
2022/03/05 08:10:46;;;;;;;35.63;17.65;;;8.40;99.90;;;;;;5162934;22;20012;-66
2022/03/05 08:12:47;;;;;;;32.60;15.90;;;8.50;99.90;;;;;;5164346;22;20004;-66
2022/03/05 08:14:48;;;;;;;35.35;18.05;;;8.70;99.90;;;;;;5163779;22;20425;-66
2022/03/05 08:16:48;;;;;;;36.72;17.88;;;8.80;99.90;;;;;;5163054;22;20039;-66
2022/03/05 08:18:49;;;;;;;34.05;17.25;;;9.10;99.90;;;;;;5163694;22;20012;-65
2022/03/05 08:20:50;;;;;;;32.13;17.23;;;9.30;99.90;;;;;;5162792;22;20332;-66
2022/03/05 08:22:51;;;;;;;37.22;19.13;;;9.20;99.90;;;;;;5163480;22;20039;-66
2022/03/05 08:24:52;;;;;;;34.35;17.67;;;9.10;99.30;;;;;;5163548;22;20047;-66
2022/03/05 08:26:52;;;;;;;35.95;18.42;;;9.20;99.90;;;;;;5160534;23;20150;-66
2022/03/05 08:28:53;;;;;;;34.60;17.33;;;9.20;99.90;;;;;;5162960;22;20000;-66
2022/03/05 08:30:53;;;;;;;33.67;18.45;;;9.10;96.60;;;;;;5162209;22;20031;-66
2022/03/05 08:32:54;;;;;;;32.72;17.27;;;9.20;96.00;;;;;;5161569;23;20083;-66
2022/03/05 08:34:55;;;;;;;34.90;18.00;;;9.40;97.10;;;;;;5163943;22;20016;-66
2022/03/05 08:36:55;;;;;;;33.42;18.15;;;9.40;95.60;;;;;;5162850;22;20016;-67
2022/03/05 08:38:56;;;;;;;38.67;19.40;;;9.50;99.40;;;;;;5163275;22;20061;-65
2022/03/05 08:40:58;;;;;;;37.08;18.67;;;9.00;94.30;;;;;;5162623;22;20012;-66
2022/03/05 08:42:59;;;;;;;36.50;17.85;;;9.20;99.90;;;;;;5163353;22;20034;-65
2022/03/05 08:45:00;;;;;;;38.13;18.35;;;9.30;96.60;;;;;;5163251;22;20281;-66
2022/03/05 08:47:00;;;;;;;33.70;17.88;;;9.30;97.00;;;;;;5162176;22;20126;-66
2022/03/05 08:49:01;;;;;;;35.60;18.23;;;9.40;97.10;;;;;;5163485;22;20102;-66
2022/03/05 08:51:02;;;;;;;34.72;18.15;;;9.30;96.90;;;;;;5162508;22;20088;-65
2022/03/05 08:53:03;;;;;;;36.00;18.87;;;9.20;96.60;;;;;;5163348;22;20108;-66
2022/03/05 08:55:07;;;;;;;33.80;18.00;;;9.10;95.10;;;;;;5164146;22;20012;-67
2022/03/05 08:57:09;;;;;;;33.90;18.42;;;9.10;97.60;;;;;;5165514;22;20344;-64
2022/03/05 08:59:09;;;;;;;38.13;19.57;;;9.00;97.10;;;;;;5165830;22;20077;-64
2022/03/05 09:01:10;;;;;;;38.38;18.63;;;8.90;95.10;;;;;;5164986;22;20239;-66
2022/03/05 09:03:10;;;;;;;35.80;18.00;;;8.80;95.60;;;;;;5165783;22;20514;-64
2022/03/05 09:05:13;;;;;;;33.53;17.50;;;8.90;97.00;;;;;;5164572;22;20016;-64
2022/03/05 09:07:13;;;;;;;36.28;18.85;;;8.80;96.10;;;;;;5162617;23;20082;-64
2022/03/05 09:09:14;;;;;;;33.90;17.60;;;8.90;97.20;;;;;;5165968;22;20016;-64
2022/03/05 09:11:15;;;;;;;34.72;17.98;;;9.00;97.10;;;;;;5164517;22;20306;-64
2022/03/05 09:13:15;;;;;;;40.50;19.45;;;8.70;94.80;;;;;;5161992;22;20016;-66
2022/03/05 09:15:16;;;;;;;37.17;19.08;;;8.60;95.20;;;;;;5163229;22;20035;-66
2022/03/05 09:17:17;;;;;;;34.45;18.45;;;8.50;97.40;;;;;;5163480;22;20030;-66
2022/03/05 09:19:17;;;;;;;34.55;17.20;;;8.60;98.00;;;;;;5164415;22;20436;-66
2022/03/05 09:21:18;;;;;;;33.10;17.58;;;8.70;98.60;;;;;;5162411;22;20012;-66
2022/03/05 09:23:18;;;;;;;36.90;18.80;;;8.80;97.00;;;;;;5163675;22;20087;-66
2022/03/05 09:25:19;;;;;;;38.03;19.10;;;8.50;97.30;;;;;;5163070;22;20079;-66
2022/03/05 09:27:20;;;;;;;32.33;16.65;;;8.60;98.90;;;;;;5164164;22;20047;-66
2022/03/05 09:29:20;;;;;;;36.85;17.95;;;8.80;99.20;;;;;;5163472;22;20022;-66
2022/03/05 09:31:21;;;;;;;34.35;18.02;;;8.90;99.70;;;;;;5162445;22;20054;-65
2022/03/05 09:33:22;;;;;;;34.97;17.58;;;8.90;98.30;;;;;;5163668;22;20340;-65
2022/03/05 09:35:23;;;;;;;36.15;17.50;;;9.00;98.10;;;;;;5163140;22;20492;-65
2022/03/05 09:37:25;;;;;;;36.03;18.98;;;9.00;96.40;;;;;;5163383;22;20012;-66
2022/03/05 09:39:25;;;;;;;33.97;18.27;;;9.00;95.20;;;;;;5163772;22;20030;-66
2022/03/05 09:41:26;;;;;;;35.67;18.73;;;9.20;98.20;;;;;;5162501;22;20024;-65
2022/03/05 09:43:27;;;;;;;36.08;19.10;;;9.10;95.10;;;;;;5162839;22;20011;-66
2022/03/05 09:45:27;;;;;;;39.67;20.10;;;9.00;96.60;;;;;;5162767;22;20070;-65
2022/03/05 09:47:28;;;;;;;35.35;18.35;;;8.70;94.50;;;;;;5164421;22;20016;-65
2022/03/05 09:49:29;;;;;;;36.03;18.52;;;8.90;96.40;;;;;;5164094;22;20116;-66
2022/03/05 09:51:30;;;;;;;39.08;19.30;;;8.90;95.70;;;;;;5162512;22;20019;-66
2022/03/05 09:53:32;;;;;;;40.15;19.58;;;8.80;96.10;;;;;;5163317;22;20005;-65
2022/03/05 09:55:33;;;;;;;35.70;18.73;;;8.70;95.30;;;;;;5162425;22;20396;-65
2022/03/05 09:57:34;;;;;;;34.58;18.55;;;8.80;95.70;;;;;;5165181;22;20012;-65
2022/03/05 09:59:34;;;;;;;40.55;19.80;;;8.80;95.60;;;;;;5164361;22;20080;-66
2022/03/05 10:01:35;;;;;;;34.33;18.35;;;8.80;96.30;;;;;;5155610;22;20015;-65
2022/03/05 10:03:50;;;;;;;36.30;18.67;;;8.80;96.50;;;;;;5164694;22;20008;-65
2022/03/05 10:05:51;;;;;;;35.92;18.38;;;8.90;96.60;;;;;;5162385;22;20037;-65
2022/03/05 10:08:15;;;;;;;37.72;18.67;;;8.80;96.00;;;;;;5163323;22;20012;-65
2022/03/05 10:10:15;;;;;;;38.45;19.33;;;8.60;94.60;;;;;;5162212;22;20005;-65
2022/03/05 10:12:33;;;;;;;40.13;20.88;;;8.70;95.70;;;;;;5162694;22;20055;-66
2022/03/05 10:14:34;;;;;;;41.70;21.00;;;8.60;95.00;;;;;;5162137;22;20031;-66
2022/03/05 10:16:34;;;;;;;35.25;18.77;;;8.70;95.10;;;;;;5164089;22;20027;-65
2022/03/05 10:18:40;;;;;;;36.55;18.80;;;8.60;95.10;;;;;;5164771;22;20098;-65
2022/03/05 10:20:50;;;;;;;36.33;18.08;;;8.80;97.10;;;;;;5163501;22;20016;-65
2022/03/05 10:23:05;;;;;;;33.20;17.23;;;8.90;96.10;;;;;;5161219;22;20008;-65